sensor_id;sensor_type;location;lat;lon;timestamp;pressure;altitude;pressure_sealevel;temperature;humidity
61900;BME280;47853;55.890;37.664;2023-02-02T00:02:21;98269.78;;;-1.32;100.00
61900;BME280;47853;55.890;37.664;2023-02-02T00:04:46;98283.13;;;-1.02;100.00
61900;BME280;47853;55.890;37.664;2023-02-02T00:07:11;98285.25;;;-0.96;100.00
61900;BME280;47853;55.890;37.664;2023-02-02T00:09:37;98288.09;;;-1.10;100.00
61900;BME280;47853;55.890;37.664;2023-02-02T00:12:02;98278.28;;;-1.29;100.00
61900;BME280;47853;55.890;37.664;2023-02-02T00:14:27;98278.28;;;-1.41;100.00
61900;BME280;47853;55.890;37.664;2023-02-02T00:16:54;98283.00;;;-1.12;100.00
61900;BME280;47853;55.890;37.664;2023-02-02T00:19:25;98279.59;;;-1.35;100.00
61900;BME280;47853;55.890;37.664;2023-02-02T00:21:52;98268.13;;;-1.33;100.00
61900;BME280;47853;55.890;37.664;2023-02-02T00:24:18;98264.09;;;-1.25;100.00
61900;BME280;47853;55.890;37.664;2023-02-02T00:26:46;98277.09;;;-1.25;100.00
61900;BME280;47853;55.890;37.664;2023-02-02T00:29:15;98263.38;;;-1.27;100.00
61900;BME280;47853;55.890;37.664;2023-02-02T00:31:41;98267.47;;;-1.02;100.00
61900;BME280;47853;55.890;37.664;2023-02-02T00:34:06;98254.44;;;-1.13;100.00
61900;BME280;47853;55.890;37.664;2023-02-02T00:36:31;98240.75;;;-1.38;100.00
61900;BME280;47853;55.890;37.664;2023-02-02T00:38:57;98274.38;;;-1.47;100.00
61900;BME280;47853;55.890;37.664;2023-02-02T00:41:22;98266.34;;;-1.43;100.00
61900;BME280;47853;55.890;37.664;2023-02-02T00:43:47;98253.66;;;-1.25;100.00
61900;BME280;47853;55.890;37.664;2023-02-02T00:46:16;98271.16;;;-1.39;100.00
61900;BME280;47853;55.890;37.664;2023-02-02T00:48:42;98261.59;;;-1.38;100.00
61900;BME280;47853;55.890;37.664;2023-02-02T00:51:07;98262.50;;;-1.17;100.00
61900;BME280;47853;55.890;37.664;2023-02-02T00:53:32;98258.00;;;-1.03;100.00
61900;BME280;47853;55.890;37.664;2023-02-02T00:55:58;98275.28;;;-1.13;100.00
61900;BME280;47853;55.890;37.664;2023-02-02T00:58:23;98260.03;;;-1.41;100.00
61900;BME280;47853;55.890;37.664;2023-02-02T01:00:48;98271.75;;;-1.24;100.00
61900;BME280;47853;55.890;37.664;2023-02-02T01:03:14;98277.34;;;-1.28;100.00
61900;BME280;47853;55.890;37.664;2023-02-02T01:05:39;98252.56;;;-1.11;100.00
61900;BME280;47853;55.890;37.664;2023-02-02T01:08:05;98271.78;;;-1.47;100.00
61900;BME280;47853;55.890;37.664;2023-02-02T01:10:30;98262.66;;;-1.29;100.00
61900;BME280;47853;55.890;37.664;2023-02-02T01:12:55;98271.06;;;-1.49;100.00
61900;BME280;47853;55.890;37.664;2023-02-02T01:15:20;98259.09;;;-1.40;100.00
61900;BME280;47853;55.890;37.664;2023-02-02T01:17:46;98243.59;;;-1.64;100.00
61900;BME280;47853;55.890;37.664;2023-02-02T01:20:16;98260.41;;;-1.46;100.00
61900;BME280;47853;55.890;37.664;2023-02-02T01:22:42;98266.81;;;-1.50;100.00
61900;BME280;47853;55.890;37.664;2023-02-02T01:25:08;98262.56;;;-1.51;100.00
61900;BME280;47853;55.890;37.664;2023-02-02T01:27:33;98270.72;;;-1.55;100.00
61900;BME280;47853;55.890;37.664;2023-02-02T01:29:58;98260.00;;;-1.98;100.00
61900;BME280;47853;55.890;37.664;2023-02-02T01:32:24;98256.00;;;-1.91;100.00
61900;BME280;47853;55.890;37.664;2023-02-02T01:34:49;98272.22;;;-1.64;100.00
61900;BME280;47853;55.890;37.664;2023-02-02T01:37:14;98243.69;;;-1.77;100.00
61900;BME280;47853;55.890;37.664;2023-02-02T01:39:40;98258.97;;;-1.72;100.00
61900;BME280;47853;55.890;37.664;2023-02-02T01:42:12;98242.19;;;-1.80;100.00
61900;BME280;47853;55.890;37.664;2023-02-02T01:47:37;98256.63;;;-1.76;100.00
61900;BME280;47853;55.890;37.664;2023-02-02T01:50:05;98232.34;;;-1.99;100.00
61900;BME280;47853;55.890;37.664;2023-02-02T01:52:31;98255.81;;;-1.65;100.00
61900;BME280;47853;55.890;37.664;2023-02-02T01:55:05;98247.38;;;-1.80;100.00
61900;BME280;47853;55.890;37.664;2023-02-02T01:57:36;98247.84;;;-1.86;100.00
61900;BME280;47853;55.890;37.664;2023-02-02T02:00:05;98245.00;;;-1.60;100.00
61900;BME280;47853;55.890;37.664;2023-02-02T02:02:31;98235.31;;;-1.81;100.00
61900;BME280;47853;55.890;37.664;2023-02-02T02:04:59;98246.56;;;-1.57;100.00
61900;BME280;47853;55.890;37.664;2023-02-02T02:07:26;98230.59;;;-1.41;100.00
61900;BME280;47853;55.890;37.664;2023-02-02T02:09:51;98253.16;;;-1.08;100.00
61900;BME280;47853;55.890;37.664;2023-02-02T02:12:16;98238.63;;;-1.33;100.00
61900;BME280;47853;55.890;37.664;2023-02-02T02:14:48;98259.47;;;-1.44;100.00
61900;BME280;47853;55.890;37.664;2023-02-02T02:34:21;98260.66;;;-1.49;100.00
61900;BME280;47853;55.890;37.664;2023-02-02T02:36:50;98261.72;;;-1.51;100.00
61900;BME280;47853;55.890;37.664;2023-02-02T02:39:30;98263.38;;;-1.62;100.00
61900;BME280;47853;55.890;37.664;2023-02-02T02:42:01;98266.91;;;-1.74;100.00
61900;BME280;47853;55.890;37.664;2023-02-02T02:44:30;98283.03;;;-1.57;100.00
61900;BME280;47853;55.890;37.664;2023-02-02T02:46:56;98262.53;;;-1.62;100.00
61900;BME280;47853;55.890;37.664;2023-02-02T02:49:22;98280.28;;;-1.56;100.00
61900;BME280;47853;55.890;37.664;2023-02-02T02:51:52;98282.88;;;-1.67;100.00
61900;BME280;47853;55.890;37.664;2023-02-02T02:54:23;98263.09;;;-1.81;100.00
61900;BME280;47853;55.890;37.664;2023-02-02T03:07:47;98261.34;;;-1.81;100.00
61900;BME280;47853;55.890;37.664;2023-02-02T03:10:12;98268.69;;;-1.75;100.00
61900;BME280;47853;55.890;37.664;2023-02-02T03:12:46;98265.63;;;-1.46;100.00
61900;BME280;47853;55.890;37.664;2023-02-02T03:15:13;98269.63;;;-1.64;100.00
61900;BME280;47853;55.890;37.664;2023-02-02T03:17:39;98266.44;;;-1.56;100.00
61900;BME280;47853;55.890;37.664;2023-02-02T03:20:05;98256.84;;;-1.67;100.00
61900;BME280;47853;55.890;37.664;2023-02-02T03:22:30;98260.97;;;-1.87;100.00
61900;BME280;47853;55.890;37.664;2023-02-02T03:24:58;98281.31;;;-1.81;100.00
61900;BME280;47853;55.890;37.664;2023-02-02T03:27:25;98274.03;;;-1.76;100.00
61900;BME280;47853;55.890;37.664;2023-02-02T03:29:50;98269.25;;;-1.82;100.00
61900;BME280;47853;55.890;37.664;2023-02-02T03:32:16;98290.13;;;-1.59;100.00
61900;BME280;47853;55.890;37.664;2023-02-02T03:34:41;98287.84;;;-1.87;100.00
61900;BME280;47853;55.890;37.664;2023-02-02T03:37:07;98272.91;;;-1.96;100.00
61900;BME280;47853;55.890;37.664;2023-02-02T03:39:32;98271.75;;;-1.81;100.00
61900;BME280;47853;55.890;37.664;2023-02-02T03:41:58;98295.44;;;-1.72;100.00
61900;BME280;47853;55.890;37.664;2023-02-02T03:44:23;98282.41;;;-1.84;100.00
61900;BME280;47853;55.890;37.664;2023-02-02T03:46:52;98290.34;;;-1.74;100.00
61900;BME280;47853;55.890;37.664;2023-02-02T03:49:18;98302.03;;;-1.80;100.00
61900;BME280;47853;55.890;37.664;2023-02-02T03:51:43;98274.84;;;-1.76;100.00
61900;BME280;47853;55.890;37.664;2023-02-02T03:54:08;98281.47;;;-1.83;100.00
61900;BME280;47853;55.890;37.664;2023-02-02T03:56:34;98291.56;;;-2.02;100.00
61900;BME280;47853;55.890;37.664;2023-02-02T03:58:59;98294.78;;;-1.99;100.00
61900;BME280;47853;55.890;37.664;2023-02-02T04:01:27;98285.16;;;-2.21;100.00
61900;BME280;47853;55.890;37.664;2023-02-02T04:03:52;98274.53;;;-2.07;100.00
61900;BME280;47853;55.890;37.664;2023-02-02T04:06:17;98299.13;;;-2.11;100.00
61900;BME280;47853;55.890;37.664;2023-02-02T04:08:43;98296.13;;;-1.93;100.00
61900;BME280;47853;55.890;37.664;2023-02-02T04:11:09;98309.16;;;-1.70;100.00
61900;BME280;47853;55.890;37.664;2023-02-02T04:13:34;98291.78;;;-1.70;100.00
61900;BME280;47853;55.890;37.664;2023-02-02T04:16:00;98302.16;;;-1.81;100.00
61900;BME280;47853;55.890;37.664;2023-02-02T04:18:25;98284.75;;;-1.92;100.00
61900;BME280;47853;55.890;37.664;2023-02-02T04:20:58;98280.91;;;-2.11;100.00
61900;BME280;47853;55.890;37.664;2023-02-02T04:23:24;98297.31;;;-1.86;100.00
61900;BME280;47853;55.890;37.664;2023-02-02T04:25:50;98282.97;;;-1.92;100.00
61900;BME280;47853;55.890;37.664;2023-02-02T04:28:16;98297.31;;;-1.63;100.00
61900;BME280;47853;55.890;37.664;2023-02-02T04:30:44;98294.00;;;-1.65;100.00
61900;BME280;47853;55.890;37.664;2023-02-02T04:33:09;98297.94;;;-1.71;100.00
61900;BME280;47853;55.890;37.664;2023-02-02T04:35:35;98297.94;;;-1.59;100.00
61900;BME280;47853;55.890;37.664;2023-02-02T04:38:00;98297.69;;;-1.45;100.00
61900;BME280;47853;55.890;37.664;2023-02-02T04:40:26;98270.25;;;-1.61;100.00
61900;BME280;47853;55.890;37.664;2023-02-02T04:42:51;98295.78;;;-1.66;100.00
61900;BME280;47853;55.890;37.664;2023-02-02T04:45:16;98305.50;;;-1.56;100.00
61900;BME280;47853;55.890;37.664;2023-02-02T04:47:42;98312.53;;;-1.93;100.00
61900;BME280;47853;55.890;37.664;2023-02-02T04:50:08;98307.63;;;-1.62;100.00
61900;BME280;47853;55.890;37.664;2023-02-02T04:52:33;98306.78;;;-1.62;100.00
61900;BME280;47853;55.890;37.664;2023-02-02T04:54:58;98302.84;;;-1.79;100.00
61900;BME280;47853;55.890;37.664;2023-02-02T04:57:24;98298.88;;;-1.61;100.00
61900;BME280;47853;55.890;37.664;2023-02-02T04:59:49;98293.81;;;-1.51;100.00
61900;BME280;47853;55.890;37.664;2023-02-02T05:02:25;98294.25;;;-1.68;100.00
61900;BME280;47853;55.890;37.664;2023-02-02T05:04:54;98278.94;;;-1.96;100.00
61900;BME280;47853;55.890;37.664;2023-02-02T05:07:19;98276.34;;;-1.96;100.00
61900;BME280;47853;55.890;37.664;2023-02-02T05:09:44;98310.59;;;-1.55;100.00
61900;BME280;47853;55.890;37.664;2023-02-02T05:12:10;98306.94;;;-1.52;100.00
61900;BME280;47853;55.890;37.664;2023-02-02T05:14:36;98310.72;;;-1.34;100.00
61900;BME280;47853;55.890;37.664;2023-02-02T05:17:02;98312.72;;;-1.14;100.00
61900;BME280;47853;55.890;37.664;2023-02-02T05:19:27;98315.13;;;-1.46;100.00
61900;BME280;47853;55.890;37.664;2023-02-02T05:21:52;98323.53;;;-1.30;100.00
61900;BME280;47853;55.890;37.664;2023-02-02T05:24:17;98293.81;;;-1.51;100.00
61900;BME280;47853;55.890;37.664;2023-02-02T05:26:43;98313.06;;;-1.76;100.00
61900;BME280;47853;55.890;37.664;2023-02-02T05:29:08;98322.69;;;-1.54;100.00
61900;BME280;47853;55.890;37.664;2023-02-02T05:31:34;98313.78;;;-1.74;100.00
61900;BME280;47853;55.890;37.664;2023-02-02T05:33:59;98301.09;;;-1.79;100.00
61900;BME280;47853;55.890;37.664;2023-02-02T05:36:25;98311.19;;;-1.63;100.00
61900;BME280;47853;55.890;37.664;2023-02-02T05:38:50;98311.53;;;-1.67;100.00
61900;BME280;47853;55.890;37.664;2023-02-02T05:41:15;98326.94;;;-1.41;100.00
61900;BME280;47853;55.890;37.664;2023-02-02T05:43:41;98319.69;;;-1.72;100.00
61900;BME280;47853;55.890;37.664;2023-02-02T05:46:06;98322.88;;;-1.68;100.00
61900;BME280;47853;55.890;37.664;2023-02-02T05:48:31;98316.88;;;-1.57;100.00
61900;BME280;47853;55.890;37.664;2023-02-02T05:53:31;98331.13;;;-1.86;100.00
61900;BME280;47853;55.890;37.664;2023-02-02T05:55:57;98315.56;;;-1.63;100.00
61900;BME280;47853;55.890;37.664;2023-02-02T05:58:22;98343.31;;;-1.86;100.00
61900;BME280;47853;55.890;37.664;2023-02-02T06:00:47;98338.00;;;-1.85;100.00
61900;BME280;47853;55.890;37.664;2023-02-02T06:03:13;98319.16;;;-1.88;100.00
61900;BME280;47853;55.890;37.664;2023-02-02T06:05:38;98336.66;;;-1.43;100.00
61900;BME280;47853;55.890;37.664;2023-02-02T06:08:04;98336.28;;;-1.62;100.00
61900;BME280;47853;55.890;37.664;2023-02-02T06:10:29;98349.34;;;-1.86;100.00
61900;BME280;47853;55.890;37.664;2023-02-02T06:12:55;98341.66;;;-1.87;100.00
61900;BME280;47853;55.890;37.664;2023-02-02T06:15:20;98333.28;;;-1.80;100.00
61900;BME280;47853;55.890;37.664;2023-02-02T06:17:45;98367.84;;;-1.66;100.00
61900;BME280;47853;55.890;37.664;2023-02-02T06:20:11;98355.44;;;-1.74;100.00
61900;BME280;47853;55.890;37.664;2023-02-02T06:22:37;98355.03;;;-1.81;100.00
61900;BME280;47853;55.890;37.664;2023-02-02T06:25:02;98347.69;;;-1.87;100.00
61900;BME280;47853;55.890;37.664;2023-02-02T06:27:27;98353.78;;;-1.75;100.00
61900;BME280;47853;55.890;37.664;2023-02-02T06:29:53;98337.53;;;-1.90;100.00
61900;BME280;47853;55.890;37.664;2023-02-02T06:32:18;98339.59;;;-1.71;100.00
61900;BME280;47853;55.890;37.664;2023-02-02T06:34:43;98336.13;;;-1.71;100.00
61900;BME280;47853;55.890;37.664;2023-02-02T06:37:09;98337.53;;;-1.79;100.00
61900;BME280;47853;55.890;37.664;2023-02-02T06:39:34;98353.19;;;-1.67;100.00
61900;BME280;47853;55.890;37.664;2023-02-02T06:41:59;98355.84;;;-1.80;100.00
61900;BME280;47853;55.890;37.664;2023-02-02T06:44:25;98352.41;;;-1.92;100.00
61900;BME280;47853;55.890;37.664;2023-02-02T06:46:50;98349.19;;;-1.96;100.00
61900;BME280;47853;55.890;37.664;2023-02-02T06:49:15;98347.88;;;-2.01;100.00
61900;BME280;47853;55.890;37.664;2023-02-02T06:51:41;98355.28;;;-1.84;100.00
61900;BME280;47853;55.890;37.664;2023-02-02T06:54:06;98354.81;;;-1.78;100.00
61900;BME280;47853;55.890;37.664;2023-02-02T06:56:31;98355.09;;;-1.58;100.00
61900;BME280;47853;55.890;37.664;2023-02-02T06:58:57;98357.09;;;-1.73;100.00
61900;BME280;47853;55.890;37.664;2023-02-02T07:01:22;98373.28;;;-1.81;100.00
61900;BME280;47853;55.890;37.664;2023-02-02T07:03:48;98375.75;;;-1.79;100.00
61900;BME280;47853;55.890;37.664;2023-02-02T07:08:44;98358.59;;;-1.82;100.00
61900;BME280;47853;55.890;37.664;2023-02-02T07:11:10;98352.91;;;-1.87;100.00
61900;BME280;47853;55.890;37.664;2023-02-02T07:13:35;98353.81;;;-1.52;100.00
61900;BME280;47853;55.890;37.664;2023-02-02T07:16:05;98369.25;;;-1.85;100.00
61900;BME280;47853;55.890;37.664;2023-02-02T07:18:30;98371.41;;;-1.67;100.00
61900;BME280;47853;55.890;37.664;2023-02-02T07:20:59;98373.84;;;-1.77;100.00
61900;BME280;47853;55.890;37.664;2023-02-02T07:23:26;98357.16;;;-1.86;100.00
61900;BME280;47853;55.890;37.664;2023-02-02T07:26:06;98365.53;;;-1.94;100.00
61900;BME280;47853;55.890;37.664;2023-02-02T07:28:32;98380.22;;;-1.81;100.00
61900;BME280;47853;55.890;37.664;2023-02-02T07:30:58;98397.81;;;-1.61;100.00
61900;BME280;47853;55.890;37.664;2023-02-02T07:33:24;98361.91;;;-1.80;100.00
61900;BME280;47853;55.890;37.664;2023-02-02T07:35:50;98386.38;;;-1.82;100.00
61900;BME280;47853;55.890;37.664;2023-02-02T07:38:16;98379.09;;;-1.66;100.00
61900;BME280;47853;55.890;37.664;2023-02-02T07:40:41;98360.25;;;-1.81;100.00
61900;BME280;47853;55.890;37.664;2023-02-02T07:43:08;98368.56;;;-1.64;100.00
61900;BME280;47853;55.890;37.664;2023-02-02T07:45:33;98365.88;;;-1.63;100.00
61900;BME280;47853;55.890;37.664;2023-02-02T07:47:59;98371.94;;;-1.51;100.00
61900;BME280;47853;55.890;37.664;2023-02-02T07:50:25;98375.25;;;-1.26;100.00
61900;BME280;47853;55.890;37.664;2023-02-02T07:52:51;98380.19;;;-1.57;100.00
61900;BME280;47853;55.890;37.664;2023-02-02T07:55:17;98371.00;;;-1.27;100.00
61900;BME280;47853;55.890;37.664;2023-02-02T07:57:42;98369.34;;;-1.39;100.00
61900;BME280;47853;55.890;37.664;2023-02-02T08:00:08;98379.03;;;-1.53;100.00
61900;BME280;47853;55.890;37.664;2023-02-02T08:02:34;98375.69;;;-1.55;100.00
61900;BME280;47853;55.890;37.664;2023-02-02T08:05:00;98392.66;;;-1.85;100.00
61900;BME280;47853;55.890;37.664;2023-02-02T08:07:25;98387.47;;;-1.73;100.00
61900;BME280;47853;55.890;37.664;2023-02-02T08:09:51;98381.59;;;-1.64;100.00
61900;BME280;47853;55.890;37.664;2023-02-02T08:12:17;98391.81;;;-1.50;100.00
61900;BME280;47853;55.890;37.664;2023-02-02T08:14:43;98385.34;;;-1.21;100.00
61900;BME280;47853;55.890;37.664;2023-02-02T08:17:08;98391.47;;;-1.34;100.00
61900;BME280;47853;55.890;37.664;2023-02-02T08:19:34;98378.91;;;-1.51;100.00
61900;BME280;47853;55.890;37.664;2023-02-02T08:21:59;98387.03;;;-1.67;100.00
61900;BME280;47853;55.890;37.664;2023-02-02T08:24:24;98365.72;;;-1.72;100.00
61900;BME280;47853;55.890;37.664;2023-02-02T08:26:50;98371.66;;;-1.59;100.00
61900;BME280;47853;55.890;37.664;2023-02-02T08:29:15;98398.81;;;-1.86;100.00
61900;BME280;47853;55.890;37.664;2023-02-02T08:31:40;98415.53;;;-2.01;100.00
61900;BME280;47853;55.890;37.664;2023-02-02T08:34:06;98369.31;;;-1.98;100.00
61900;BME280;47853;55.890;37.664;2023-02-02T08:36:31;98389.91;;;-1.95;100.00
61900;BME280;47853;55.890;37.664;2023-02-02T08:39:02;98388.41;;;-1.86;100.00
61900;BME280;47853;55.890;37.664;2023-02-02T08:41:27;98392.31;;;-1.80;100.00
61900;BME280;47853;55.890;37.664;2023-02-02T08:43:53;98375.69;;;-2.02;100.00
61900;BME280;47853;55.890;37.664;2023-02-02T08:46:19;98384.88;;;-1.73;100.00
61900;BME280;47853;55.890;37.664;2023-02-02T08:48:45;98381.75;;;-1.90;100.00
61900;BME280;47853;55.890;37.664;2023-02-02T08:51:13;98381.38;;;-1.97;100.00
61900;BME280;47853;55.890;37.664;2023-02-02T08:53:38;98387.38;;;-1.72;100.00
61900;BME280;47853;55.890;37.664;2023-02-02T08:56:38;98393.16;;;-1.80;100.00
61900;BME280;47853;55.890;37.664;2023-02-02T08:58:57;98402.72;;;-1.44;100.00
61900;BME280;47853;55.890;37.664;2023-02-02T09:01:28;98387.78;;;-1.54;100.00
61900;BME280;47853;55.890;37.664;2023-02-02T09:03:59;98381.84;;;-1.56;100.00
61900;BME280;47853;55.890;37.664;2023-02-02T09:06:30;98389.94;;;-1.48;100.00
61900;BME280;47853;55.890;37.664;2023-02-02T09:08:56;98382.44;;;-1.64;100.00
61900;BME280;47853;55.890;37.664;2023-02-02T09:11:21;98386.94;;;-1.54;100.00
61900;BME280;47853;55.890;37.664;2023-02-02T09:13:48;98361.66;;;-1.29;100.00
61900;BME280;47853;55.890;37.664;2023-02-02T09:16:20;98379.63;;;-1.38;100.00
61900;BME280;47853;55.890;37.664;2023-02-02T09:18:45;98375.13;;;-1.47;100.00
61900;BME280;47853;55.890;37.664;2023-02-02T09:21:15;98369.81;;;-1.11;100.00
61900;BME280;47853;55.890;37.664;2023-02-02T09:23:43;98374.56;;;-0.82;100.00
61900;BME280;47853;55.890;37.664;2023-02-02T09:26:26;98381.56;;;-1.06;100.00
61900;BME280;47853;55.890;37.664;2023-02-02T09:28:56;98373.84;;;-0.96;100.00
61900;BME280;47853;55.890;37.664;2023-02-02T09:31:23;98372.91;;;-0.95;100.00
61900;BME280;47853;55.890;37.664;2023-02-02T09:33:49;98359.88;;;-0.95;100.00
61900;BME280;47853;55.890;37.664;2023-02-02T09:36:16;98357.22;;;-0.61;100.00
61900;BME280;47853;55.890;37.664;2023-02-02T09:38:42;98380.44;;;-0.13;100.00
61900;BME280;47853;55.890;37.664;2023-02-02T09:49:22;98367.69;;;-0.83;100.00
61900;BME280;47853;55.890;37.664;2023-02-02T09:51:55;98362.91;;;-0.55;100.00
61900;BME280;47853;55.890;37.664;2023-02-02T09:54:55;98358.25;;;-0.40;100.00
61900;BME280;47853;55.890;37.664;2023-02-02T09:57:24;98361.63;;;-0.28;100.00
61900;BME280;47853;55.890;37.664;2023-02-02T09:59:52;98356.97;;;-0.69;100.00
61900;BME280;47853;55.890;37.664;2023-02-02T10:02:30;98353.88;;;-0.51;100.00
61900;BME280;47853;55.890;37.664;2023-02-02T10:05:04;98364.19;;;-0.38;100.00
61900;BME280;47853;55.890;37.664;2023-02-02T10:07:35;98363.13;;;-0.47;100.00
61900;BME280;47853;55.890;37.664;2023-02-02T10:10:10;98347.19;;;-0.33;100.00
61900;BME280;47853;55.890;37.664;2023-02-02T10:12:46;98353.47;;;-0.03;100.00
61900;BME280;47853;55.890;37.664;2023-02-02T10:21:01;98358.84;;;-0.48;100.00
61900;BME280;47853;55.890;37.664;2023-02-02T10:23:38;98370.75;;;-0.78;100.00
61900;BME280;47853;55.890;37.664;2023-02-02T10:26:19;98345.19;;;-0.96;100.00
61900;BME280;47853;55.890;37.664;2023-02-02T10:35:18;98346.97;;;-1.08;100.00
61900;BME280;47853;55.890;37.664;2023-02-02T10:37:58;98352.31;;;-1.09;100.00
61900;BME280;47853;55.890;37.664;2023-02-02T10:45:56;98335.78;;;-0.64;100.00
61900;BME280;47853;55.890;37.664;2023-02-02T10:48:25;98348.69;;;-0.63;100.00
61900;BME280;47853;55.890;37.664;2023-02-02T10:50:54;98354.38;;;-0.69;100.00
61900;BME280;47853;55.890;37.664;2023-02-02T10:53:23;98340.16;;;-0.65;100.00
61900;BME280;47853;55.890;37.664;2023-02-02T10:55:55;98349.13;;;-0.46;100.00
61900;BME280;47853;55.890;37.664;2023-02-02T11:01:18;98338.72;;;0.08;100.00
61900;BME280;47853;55.890;37.664;2023-02-02T11:03:44;98336.03;;;0.40;100.00
61900;BME280;47853;55.890;37.664;2023-02-02T11:06:10;98339.41;;;0.10;100.00
61900;BME280;47853;55.890;37.664;2023-02-02T11:08:41;98345.50;;;-0.01;100.00
61900;BME280;47853;55.890;37.664;2023-02-02T11:11:15;98332.41;;;-0.11;100.00
61900;BME280;47853;55.890;37.664;2023-02-02T11:13:46;98348.44;;;0.06;100.00
61900;BME280;47853;55.890;37.664;2023-02-02T11:18:40;98351.53;;;0.32;100.00
61900;BME280;47853;55.890;37.664;2023-02-02T11:24:21;98341.63;;;-0.07;100.00
61900;BME280;47853;55.890;37.664;2023-02-02T11:29:52;98340.44;;;-0.03;100.00
61900;BME280;47853;55.890;37.664;2023-02-02T11:42:46;98365.53;;;0.31;100.00
61900;BME280;47853;55.890;37.664;2023-02-02T11:45:16;98345.09;;;0.89;100.00
61900;BME280;47853;55.890;37.664;2023-02-02T11:47:42;98344.19;;;0.47;100.00
61900;BME280;47853;55.890;37.664;2023-02-02T11:50:19;98345.47;;;0.32;100.00
61900;BME280;47853;55.890;37.664;2023-02-02T11:52:47;98347.50;;;0.07;100.00
61900;BME280;47853;55.890;37.664;2023-02-02T11:55:17;98354.47;;;0.39;100.00
61900;BME280;47853;55.890;37.664;2023-02-02T12:00:50;98360.84;;;0.77;100.00
61900;BME280;47853;55.890;37.664;2023-02-02T12:05:51;98367.59;;;0.27;100.00
61900;BME280;47853;55.890;37.664;2023-02-02T12:08:16;98364.38;;;0.03;100.00
61900;BME280;47853;55.890;37.664;2023-02-02T12:10:56;98366.94;;;0.35;100.00
61900;BME280;47853;55.890;37.664;2023-02-02T12:16:20;98370.84;;;-0.13;100.00
61900;BME280;47853;55.890;37.664;2023-02-02T12:19:26;98367.31;;;0.09;100.00
61900;BME280;47853;55.890;37.664;2023-02-02T12:24:28;98373.97;;;-0.19;100.00
61900;BME280;47853;55.890;37.664;2023-02-02T12:30:03;98352.16;;;-0.30;100.00
61900;BME280;47853;55.890;37.664;2023-02-02T12:33:02;98369.22;;;-0.25;100.00
61900;BME280;47853;55.890;37.664;2023-02-02T12:35:47;98371.09;;;-0.16;100.00
61900;BME280;47853;55.890;37.664;2023-02-02T12:41:25;98362.75;;;-0.42;100.00
61900;BME280;47853;55.890;37.664;2023-02-02T12:44:11;98376.09;;;-0.24;100.00
61900;BME280;47853;55.890;37.664;2023-02-02T12:51:54;98380.78;;;-0.39;100.00
61900;BME280;47853;55.890;37.664;2023-02-02T12:54:51;98367.91;;;-0.20;100.00
61900;BME280;47853;55.890;37.664;2023-02-02T12:57:36;98378.25;;;-0.30;100.00
61900;BME280;47853;55.890;37.664;2023-02-02T13:02:59;98363.78;;;-0.01;100.00
61900;BME280;47853;55.890;37.664;2023-02-02T13:05:48;98380.03;;;-0.30;100.00
61900;BME280;47853;55.890;37.664;2023-02-02T13:08:22;98365.63;;;-0.57;100.00
61900;BME280;47853;55.890;37.664;2023-02-02T13:10:52;98375.88;;;-0.21;100.00
61900;BME280;47853;55.890;37.664;2023-02-02T13:13:30;98373.53;;;-0.03;100.00
61900;BME280;47853;55.890;37.664;2023-02-02T13:16:10;98387.75;;;-0.40;100.00
61900;BME280;47853;55.890;37.664;2023-02-02T13:19:14;98376.91;;;-0.56;100.00
61900;BME280;47853;55.890;37.664;2023-02-02T13:21:31;98367.31;;;-0.67;100.00
61900;BME280;47853;55.890;37.664;2023-02-02T13:24:04;98369.91;;;-0.67;100.00
61900;BME280;47853;55.890;37.664;2023-02-02T13:26:33;98377.84;;;-0.57;100.00
61900;BME280;47853;55.890;37.664;2023-02-02T13:29:17;98392.09;;;-0.62;100.00
61900;BME280;47853;55.890;37.664;2023-02-02T13:31:56;98381.91;;;-0.65;100.00
61900;BME280;47853;55.890;37.664;2023-02-02T13:34:37;98373.78;;;-0.50;100.00
61900;BME280;47853;55.890;37.664;2023-02-02T13:39:39;98355.41;;;-0.49;100.00
61900;BME280;47853;55.890;37.664;2023-02-02T13:44:55;98358.00;;;-0.49;100.00
61900;BME280;47853;55.890;37.664;2023-02-02T13:47:33;98376.19;;;-0.59;100.00
61900;BME280;47853;55.890;37.664;2023-02-02T13:50:12;98365.66;;;-0.68;100.00
61900;BME280;47853;55.890;37.664;2023-02-02T13:56:04;98372.75;;;-0.59;100.00
61900;BME280;47853;55.890;37.664;2023-02-02T14:01:19;98387.66;;;-0.50;100.00
61900;BME280;47853;55.890;37.664;2023-02-02T14:03:56;98391.25;;;-0.62;100.00
61900;BME280;47853;55.890;37.664;2023-02-02T14:06:25;98393.28;;;-0.66;100.00
61900;BME280;47853;55.890;37.664;2023-02-02T14:11:33;98375.72;;;-0.64;100.00
61900;BME280;47853;55.890;37.664;2023-02-02T14:14:15;98386.31;;;-0.21;100.00
61900;BME280;47853;55.890;37.664;2023-02-02T14:16:45;98382.53;;;-0.40;100.00
61900;BME280;47853;55.890;37.664;2023-02-02T14:19:45;98397.38;;;-0.40;100.00
61900;BME280;47853;55.890;37.664;2023-02-02T14:27:38;98399.56;;;-0.24;100.00
61900;BME280;47853;55.890;37.664;2023-02-02T14:38:06;98414.41;;;-0.25;100.00
61900;BME280;47853;55.890;37.664;2023-02-02T14:43:20;98412.16;;;-0.18;100.00
61900;BME280;47853;55.890;37.664;2023-02-02T14:48:42;98416.66;;;-0.32;100.00
61900;BME280;47853;55.890;37.664;2023-02-02T14:51:22;98404.94;;;-0.26;100.00
61900;BME280;47853;55.890;37.664;2023-02-02T14:53:55;98427.25;;;-0.33;100.00
61900;BME280;47853;55.890;37.664;2023-02-02T14:59:11;98435.81;;;-0.54;100.00
61900;BME280;47853;55.890;37.664;2023-02-02T15:01:41;98422.19;;;-0.57;100.00
61900;BME280;47853;55.890;37.664;2023-02-02T15:06:46;98438.16;;;-0.39;100.00
61900;BME280;47853;55.890;37.664;2023-02-02T15:25:25;98446.72;;;-0.94;100.00
61900;BME280;47853;55.890;37.664;2023-02-02T15:27:56;98430.59;;;-0.99;100.00
61900;BME280;47853;55.890;37.664;2023-02-02T15:30:23;98427.06;;;-0.87;100.00
61900;BME280;47853;55.890;37.664;2023-02-02T15:32:50;98460.22;;;-0.89;100.00